createdAt,value
2022-12-12T00:01:47.401Z,10.47
2022-12-12T00:07:10.351Z,10.86
2022-12-12T00:12:36.127Z,10.36
2022-12-12T00:18:02.689Z,10.45
2022-12-12T00:23:29.345Z,10.66
2022-12-12T00:28:57.555Z,10.83
2022-12-12T00:34:23.129Z,10.89
2022-12-12T00:39:46.230Z,11.16
2022-12-12T00:45:12.929Z,10.34
2022-12-12T00:50:37.870Z,12.09
2022-12-12T00:56:02.359Z,10.57
2022-12-12T01:01:28.446Z,11.35
2022-12-12T01:06:55.894Z,11.92
2022-12-12T01:12:22.105Z,10.81
2022-12-12T01:17:43.333Z,11.33
2022-12-12T01:23:04.629Z,11.00
2022-12-12T01:28:25.678Z,10.70
2022-12-12T01:33:51.928Z,11.63
2022-12-12T01:39:18.673Z,11.63
2022-12-12T01:44:46.195Z,11.01
2022-12-12T01:50:13.296Z,11.56
2022-12-12T01:55:39.602Z,10.62
2022-12-12T02:01:06.383Z,11.02
2022-12-12T02:06:33.375Z,10.78
2022-12-12T02:11:55.593Z,10.88
2022-12-12T02:17:18.975Z,10.52
2022-12-12T02:23:00.633Z,11.70
2022-12-12T02:28:42.153Z,10.15
2022-12-12T02:34:13.053Z,11.12
2022-12-12T02:39:36.830Z,11.50
2022-12-12T02:45:02.468Z,10.82
2022-12-12T02:50:29.727Z,10.62
2022-12-12T02:55:53.747Z,10.78
2022-12-12T03:01:22.353Z,10.99
2022-12-12T03:06:44.159Z,11.03
2022-12-12T03:12:13.140Z,10.59
2022-12-12T03:17:34.543Z,11.31
2022-12-12T03:22:56.818Z,10.13
2022-12-12T03:28:24.368Z,10.70
2022-12-12T03:33:52.886Z,11.47
2022-12-12T03:39:20.071Z,9.60
2022-12-12T03:44:45.525Z,9.29
2022-12-12T03:50:09.571Z,10.23
2022-12-12T03:55:36.338Z,9.98
2022-12-12T04:00:59.792Z,10.14
2022-12-12T04:06:24.568Z,9.68
2022-12-12T04:11:51.513Z,10.90
2022-12-12T04:17:17.129Z,9.55
2022-12-12T04:22:42.898Z,11.05
2022-12-12T04:28:06.617Z,10.55
2022-12-12T04:33:31.467Z,9.81
2022-12-12T04:38:54.071Z,10.72
2022-12-12T04:44:16.296Z,9.77
2022-12-12T04:49:37.512Z,9.82
2022-12-12T04:55:02.491Z,10.89
2022-12-12T05:00:24.375Z,8.42
2022-12-12T05:05:51.105Z,9.37
2022-12-12T05:11:17.544Z,9.46
2022-12-12T05:16:38.298Z,10.26
2022-12-12T05:22:01.720Z,9.03
2022-12-12T05:27:26.394Z,9.18
2022-12-12T05:32:52.506Z,7.84
2022-12-12T05:38:18.883Z,9.27
2022-12-12T05:43:49.726Z,9.06
2022-12-12T05:49:14.025Z,9.59
2022-12-12T05:54:36.287Z,8.59
2022-12-12T06:00:02.599Z,10.29
2022-12-12T06:05:30.524Z,10.62
2022-12-12T06:10:55.006Z,10.16
2022-12-12T06:16:18.715Z,10.46
2022-12-12T06:21:45.382Z,10.09
2022-12-12T06:27:12.891Z,10.07
2022-12-12T06:32:36.467Z,9.77
2022-12-12T06:38:03.165Z,8.81
2022-12-12T06:43:26.987Z,9.22
2022-12-12T06:48:48.272Z,10.66
2022-12-12T06:54:09.330Z,8.72
2022-12-12T06:59:32.086Z,9.33
2022-12-12T07:04:57.990Z,8.72
2022-12-12T07:10:22.988Z,9.54
2022-12-12T07:15:49.275Z,9.12
2022-12-12T07:21:13.764Z,8.49
2022-12-12T07:26:39.283Z,9.50
2022-12-12T07:32:07.578Z,9.08
2022-12-12T07:37:34.325Z,9.81
2022-12-12T07:42:57.419Z,8.59
2022-12-12T07:48:23.347Z,9.97
2022-12-12T07:53:45.197Z,9.59
2022-12-12T07:59:10.452Z,8.95
2022-12-12T08:04:36.627Z,9.05
2022-12-12T08:10:00.236Z,7.99
2022-12-12T08:15:22.732Z,8.46
2022-12-12T08:20:48.913Z,8.99
2022-12-12T08:26:13.790Z,8.06
2022-12-12T08:31:36.930Z,9.16
2022-12-12T08:37:03.232Z,8.25
2022-12-12T08:42:24.020Z,8.27
2022-12-12T08:47:49.632Z,8.41
2022-12-12T08:53:17.058Z,9.56
2022-12-12T08:58:43.693Z,9.73
2022-12-12T09:04:07.042Z,6.15
2022-12-12T09:09:31.054Z,7.17
2022-12-12T09:14:58.087Z,8.92
2022-12-12T09:20:21.694Z,8.69
2022-12-12T09:25:48.778Z,9.79
2022-12-12T09:31:15.384Z,8.53
2022-12-12T09:36:41.623Z,7.66
2022-12-12T09:42:06.085Z,7.40
2022-12-12T09:47:32.786Z,8.11
2022-12-12T09:52:58.617Z,8.78
2022-12-12T09:58:25.895Z,8.92
2022-12-12T10:03:49.403Z,7.60
2022-12-12T10:09:16.863Z,8.67
2022-12-12T10:14:46.672Z,9.09
2022-12-12T10:20:12.917Z,8.54
2022-12-12T10:25:37.725Z,8.90
2022-12-12T10:31:02.633Z,9.48
2022-12-12T10:36:37.828Z,8.60
2022-12-12T10:42:13.181Z,5.91
2022-12-12T10:47:39.814Z,8.72
2022-12-12T10:53:03.647Z,8.10
2022-12-12T10:58:30.973Z,8.47
2022-12-12T11:03:57.580Z,6.68
2022-12-12T11:09:19.546Z,6.79
2022-12-12T11:14:45.986Z,6.87
2022-12-12T11:20:11.392Z,9.06
2022-12-12T11:25:37.405Z,8.19
2022-12-12T11:31:05.330Z,8.03
2022-12-12T11:36:31.587Z,7.13
2022-12-12T11:41:55.356Z,7.89
2022-12-12T11:47:21.080Z,7.33
2022-12-12T11:52:45.731Z,7.28
2022-12-12T11:58:11.717Z,6.00
2022-12-12T12:03:36.222Z,6.35
2022-12-12T12:09:10.871Z,6.53
2022-12-12T12:14:38.448Z,7.81
2022-12-12T12:20:06.706Z,6.34
2022-12-12T12:25:35.830Z,7.56
2022-12-12T12:31:04.090Z,6.37
2022-12-12T12:36:30.842Z,6.73
2022-12-12T12:41:59.246Z,6.64
2022-12-12T12:47:27.795Z,6.37
2022-12-12T12:52:51.686Z,6.68
2022-12-12T12:58:16.418Z,7.01
2022-12-12T13:03:39.671Z,6.81
2022-12-12T13:09:00.466Z,7.00
2022-12-12T13:14:29.818Z,6.21
2022-12-12T13:19:50.631Z,6.47
2022-12-12T13:25:16.901Z,6.35
2022-12-12T13:30:39.109Z,5.84
2022-12-12T13:36:16.012Z,6.31
2022-12-12T13:41:37.929Z,5.34
2022-12-12T13:47:18.685Z,5.63
2022-12-12T13:53:06.353Z,5.43
2022-12-12T13:58:38.979Z,5.44
2022-12-12T14:04:04.681Z,5.43
2022-12-12T14:09:48.432Z,5.90
2022-12-12T14:15:06.696Z,5.48
2022-12-12T14:20:39.536Z,7.19
2022-12-12T14:26:03.815Z,5.94
2022-12-12T14:32:05.369Z,5.37
2022-12-12T14:37:52.925Z,6.62
2022-12-12T14:43:22.693Z,6.30
2022-12-12T14:48:46.269Z,5.84
2022-12-12T14:54:17.127Z,6.47
2022-12-12T14:59:44.194Z,6.02
2022-12-12T15:05:11.889Z,7.11
2022-12-12T15:10:37.375Z,6.67
2022-12-12T15:16:04.146Z,6.16
2022-12-12T15:21:28.760Z,6.49
2022-12-12T15:26:50.021Z,6.81
2022-12-12T15:32:12.297Z,6.45
2022-12-12T15:37:36.951Z,6.04
2022-12-12T15:42:58.100Z,6.79
2022-12-12T15:48:23.834Z,6.64
2022-12-12T15:53:50.180Z,7.57
2022-12-12T15:59:16.375Z,6.82
2022-12-12T16:04:41.479Z,6.30
2022-12-12T16:10:16.661Z,6.43
2022-12-12T16:15:43.630Z,6.72
2022-12-12T16:21:08.802Z,7.03
2022-12-12T16:26:35.540Z,7.61
2022-12-12T16:31:56.775Z,8.34
2022-12-12T16:37:18.680Z,7.06
2022-12-12T16:42:44.643Z,6.31
2022-12-12T16:48:10.357Z,7.36
2022-12-12T16:53:33.263Z,6.27
2022-12-12T16:58:58.184Z,6.87
2022-12-12T17:04:25.499Z,7.18
2022-12-12T17:09:52.491Z,6.75
2022-12-12T17:15:17.001Z,7.72
2022-12-12T17:20:43.177Z,8.43
2022-12-12T17:26:08.978Z,7.54
2022-12-12T17:31:35.279Z,8.41
2022-12-12T17:37:02.079Z,9.28
2022-12-12T17:42:25.565Z,9.09
2022-12-12T17:47:46.872Z,8.38
2022-12-12T17:53:11.023Z,8.77
2022-12-12T17:58:34.722Z,8.71
2022-12-12T18:04:01.992Z,6.85
2022-12-12T18:09:27.934Z,7.61
2022-12-12T18:14:52.858Z,8.36
2022-12-12T18:20:17.829Z,8.08
2022-12-12T18:25:45.584Z,9.36
2022-12-12T18:31:13.196Z,10.88
2022-12-12T18:36:37.381Z,10.12
2022-12-12T18:42:04.350Z,9.36
2022-12-12T18:47:31.251Z,10.02
2022-12-12T18:52:57.805Z,11.21
2022-12-12T18:58:26.491Z,12.84
2022-12-12T19:03:52.458Z,11.58
2022-12-12T19:09:19.192Z,10.09
2022-12-12T19:15:08.353Z,10.23
2022-12-12T19:20:01.578Z,10.28
2022-12-12T19:25:31.001Z,10.04
2022-12-12T19:30:57.384Z,9.79
2022-12-12T19:36:25.624Z,11.07
2022-12-12T19:41:49.595Z,10.74
2022-12-12T19:47:13.974Z,10.98
2022-12-12T19:52:38.995Z,9.10
2022-12-12T19:58:04.229Z,10.05
2022-12-12T20:03:30.620Z,9.09
2022-12-12T20:08:57.898Z,9.57
2022-12-12T20:14:19.447Z,11.00
2022-12-12T20:19:40.126Z,17.65
2022-12-12T20:25:00.778Z,12.70
2022-12-12T20:30:23.276Z,13.19
2022-12-12T20:35:45.301Z,11.60
2022-12-12T20:41:07.435Z,10.70
2022-12-12T20:46:32.050Z,9.64
2022-12-12T20:51:56.376Z,8.92
2022-12-12T20:57:18.958Z,7.91
2022-12-12T21:02:42.862Z,9.46
2022-12-12T21:08:12.897Z,9.88
2022-12-12T21:13:36.488Z,9.59
2022-12-12T21:19:01.289Z,9.52
2022-12-12T21:24:26.783Z,8.70
2022-12-12T21:29:52.350Z,9.57
2022-12-12T21:35:17.101Z,8.64
2022-12-12T21:40:42.123Z,9.36
2022-12-12T21:46:02.691Z,9.65
2022-12-12T21:51:23.760Z,9.55
2022-12-12T21:56:49.863Z,10.47
2022-12-12T22:02:13.206Z,9.02
2022-12-12T22:07:35.686Z,9.92
2022-12-12T22:13:01.984Z,8.77
2022-12-12T22:18:28.244Z,8.87
2022-12-12T22:23:51.334Z,7.89
2022-12-12T22:29:15.701Z,7.66
2022-12-12T22:34:40.644Z,8.53
2022-12-12T22:40:04.400Z,8.31
2022-12-12T22:45:33.228Z,7.88
2022-12-12T22:50:53.686Z,7.27
2022-12-12T22:56:16.199Z,7.76
2022-12-12T23:01:39.941Z,7.59
2022-12-12T23:07:02.578Z,7.23
2022-12-12T23:12:28.923Z,6.49
2022-12-12T23:17:55.335Z,7.68
2022-12-12T23:23:20.480Z,7.85
2022-12-12T23:28:45.641Z,7.28
2022-12-12T23:34:10.825Z,6.70
2022-12-12T23:39:33.983Z,8.06
2022-12-12T23:44:58.494Z,9.27
2022-12-12T23:50:25.556Z,8.48
2022-12-12T23:55:51.468Z,7.40
